sensor_id;sensor_type;location;lat;lon;timestamp;temperature;humidity
7666;DHT22;3875;46.562;4.898;2023-03-09T00:00:06;10.40;98.60
7666;DHT22;3875;46.562;4.898;2023-03-09T00:02:36;10.40;98.60
7666;DHT22;3875;46.562;4.898;2023-03-09T00:05:03;10.40;98.60
7666;DHT22;3875;46.562;4.898;2023-03-09T00:07:29;10.40;98.60
7666;DHT22;3875;46.562;4.898;2023-03-09T00:09:56;10.50;98.60
7666;DHT22;3875;46.562;4.898;2023-03-09T00:12:23;10.50;98.60
7666;DHT22;3875;46.562;4.898;2023-03-09T00:14:52;10.60;98.60
7666;DHT22;3875;46.562;4.898;2023-03-09T00:17:18;10.60;98.60
7666;DHT22;3875;46.562;4.898;2023-03-09T00:19:44;10.60;98.60
7666;DHT22;3875;46.562;4.898;2023-03-09T00:22:11;10.60;98.60
7666;DHT22;3875;46.562;4.898;2023-03-09T00:24:36;10.60;98.50
7666;DHT22;3875;46.562;4.898;2023-03-09T00:27:10;10.60;98.10
7666;DHT22;3875;46.562;4.898;2023-03-09T00:29:36;10.80;97.10
7666;DHT22;3875;46.562;4.898;2023-03-09T00:32:02;11.00;95.20
7666;DHT22;3875;46.562;4.898;2023-03-09T00:34:28;11.30;93.20
7666;DHT22;3875;46.562;4.898;2023-03-09T00:36:54;11.70;91.60
7666;DHT22;3875;46.562;4.898;2023-03-09T00:39:21;12.00;88.70
7666;DHT22;3875;46.562;4.898;2023-03-09T00:41:46;12.20;88.40
7666;DHT22;3875;46.562;4.898;2023-03-09T00:44:13;12.30;86.00
7666;DHT22;3875;46.562;4.898;2023-03-09T00:46:39;12.50;84.40
7666;DHT22;3875;46.562;4.898;2023-03-09T00:49:05;12.70;84.00
7666;DHT22;3875;46.562;4.898;2023-03-09T00:51:33;12.80;84.20
7666;DHT22;3875;46.562;4.898;2023-03-09T00:53:59;12.80;84.40
7666;DHT22;3875;46.562;4.898;2023-03-09T00:56:26;12.90;82.90
7666;DHT22;3875;46.562;4.898;2023-03-09T00:58:53;13.00;82.50
7666;DHT22;3875;46.562;4.898;2023-03-09T01:01:19;13.10;81.70
7666;DHT22;3875;46.562;4.898;2023-03-09T01:03:45;13.20;80.80
7666;DHT22;3875;46.562;4.898;2023-03-09T01:06:12;13.30;80.60
7666;DHT22;3875;46.562;4.898;2023-03-09T01:08:38;13.30;80.70
7666;DHT22;3875;46.562;4.898;2023-03-09T01:11:10;13.40;80.00
7666;DHT22;3875;46.562;4.898;2023-03-09T01:13:36;13.40;79.90
7666;DHT22;3875;46.562;4.898;2023-03-09T01:16:02;13.40;79.40
7666;DHT22;3875;46.562;4.898;2023-03-09T01:18:28;13.30;79.60
7666;DHT22;3875;46.562;4.898;2023-03-09T01:20:54;13.30;79.20
7666;DHT22;3875;46.562;4.898;2023-03-09T01:23:19;13.30;78.70
7666;DHT22;3875;46.562;4.898;2023-03-09T01:25:45;13.40;78.10
7666;DHT22;3875;46.562;4.898;2023-03-09T01:28:11;13.50;77.70
7666;DHT22;3875;46.562;4.898;2023-03-09T01:30:37;13.40;77.90
7666;DHT22;3875;46.562;4.898;2023-03-09T01:33:03;13.40;77.70
7666;DHT22;3875;46.562;4.898;2023-03-09T01:35:28;13.30;78.10
7666;DHT22;3875;46.562;4.898;2023-03-09T01:37:54;13.30;77.30
7666;DHT22;3875;46.562;4.898;2023-03-09T01:40:22;13.30;77.50
7666;DHT22;3875;46.562;4.898;2023-03-09T01:47:46;13.20;78.00
7666;DHT22;3875;46.562;4.898;2023-03-09T01:52:43;13.20;77.50
7666;DHT22;3875;46.562;4.898;2023-03-09T01:55:11;13.30;77.30
7666;DHT22;3875;46.562;4.898;2023-03-09T01:57:48;13.30;77.70
7666;DHT22;3875;46.562;4.898;2023-03-09T02:00:17;13.20;77.20
7666;DHT22;3875;46.562;4.898;2023-03-09T02:02:48;13.20;77.40
7666;DHT22;3875;46.562;4.898;2023-03-09T02:05:20;13.20;77.70
7666;DHT22;3875;46.562;4.898;2023-03-09T02:07:48;13.20;77.30
7666;DHT22;3875;46.562;4.898;2023-03-09T02:10:20;13.20;77.40
7666;DHT22;3875;46.562;4.898;2023-03-09T02:12:50;13.20;77.30
7666;DHT22;3875;46.562;4.898;2023-03-09T02:15:21;13.20;77.70
7666;DHT22;3875;46.562;4.898;2023-03-09T02:17:48;13.20;77.70
7666;DHT22;3875;46.562;4.898;2023-03-09T02:22:51;13.10;78.20
7666;DHT22;3875;46.562;4.898;2023-03-09T02:25:38;13.20;77.30
7666;DHT22;3875;46.562;4.898;2023-03-09T02:28:06;13.20;77.20
7666;DHT22;3875;46.562;4.898;2023-03-09T02:30:34;13.10;77.60
7666;DHT22;3875;46.562;4.898;2023-03-09T02:33:04;13.00;77.80
7666;DHT22;3875;46.562;4.898;2023-03-09T02:35:30;13.00;77.50
7666;DHT22;3875;46.562;4.898;2023-03-09T02:37:55;13.00;77.40
7666;DHT22;3875;46.562;4.898;2023-03-09T02:42:56;13.00;77.70
7666;DHT22;3875;46.562;4.898;2023-03-09T02:45:22;12.90;78.10
7666;DHT22;3875;46.562;4.898;2023-03-09T02:47:48;12.80;78.20
7666;DHT22;3875;46.562;4.898;2023-03-09T02:50:14;12.80;77.80
7666;DHT22;3875;46.562;4.898;2023-03-09T02:52:40;12.70;78.10
7666;DHT22;3875;46.562;4.898;2023-03-09T02:55:06;12.80;78.00
7666;DHT22;3875;46.562;4.898;2023-03-09T02:57:33;12.70;78.00
7666;DHT22;3875;46.562;4.898;2023-03-09T02:59:59;12.70;77.20
7666;DHT22;3875;46.562;4.898;2023-03-09T03:02:24;12.70;77.50
7666;DHT22;3875;46.562;4.898;2023-03-09T03:04:50;12.60;77.70
7666;DHT22;3875;46.562;4.898;2023-03-09T03:07:16;12.60;77.60
7666;DHT22;3875;46.562;4.898;2023-03-09T03:09:41;12.50;78.00
7666;DHT22;3875;46.562;4.898;2023-03-09T03:12:07;12.50;78.10
7666;DHT22;3875;46.562;4.898;2023-03-09T03:14:33;12.50;78.30
7666;DHT22;3875;46.562;4.898;2023-03-09T03:16:59;12.40;78.50
7666;DHT22;3875;46.562;4.898;2023-03-09T03:19:24;12.40;78.70
7666;DHT22;3875;46.562;4.898;2023-03-09T03:21:51;12.40;78.90
7666;DHT22;3875;46.562;4.898;2023-03-09T03:24:17;12.40;79.10
7666;DHT22;3875;46.562;4.898;2023-03-09T03:26:42;12.40;79.00
7666;DHT22;3875;46.562;4.898;2023-03-09T03:29:08;12.30;79.10
7666;DHT22;3875;46.562;4.898;2023-03-09T03:31:34;12.30;78.90
7666;DHT22;3875;46.562;4.898;2023-03-09T03:34:00;12.30;79.00
7666;DHT22;3875;46.562;4.898;2023-03-09T03:36:26;12.30;79.10
7666;DHT22;3875;46.562;4.898;2023-03-09T03:38:51;12.30;79.40
7666;DHT22;3875;46.562;4.898;2023-03-09T03:41:17;12.30;79.60
7666;DHT22;3875;46.562;4.898;2023-03-09T03:43:43;12.30;79.80
7666;DHT22;3875;46.562;4.898;2023-03-09T03:46:08;12.20;79.90
7666;DHT22;3875;46.562;4.898;2023-03-09T03:48:34;12.10;80.20
7666;DHT22;3875;46.562;4.898;2023-03-09T03:51:00;12.10;80.40
7666;DHT22;3875;46.562;4.898;2023-03-09T03:53:25;12.00;80.60
7666;DHT22;3875;46.562;4.898;2023-03-09T03:55:51;11.90;80.80
7666;DHT22;3875;46.562;4.898;2023-03-09T03:58:17;11.90;81.00
7666;DHT22;3875;46.562;4.898;2023-03-09T04:00:42;11.90;81.10
7666;DHT22;3875;46.562;4.898;2023-03-09T04:03:08;11.90;81.10
7666;DHT22;3875;46.562;4.898;2023-03-09T04:05:34;11.90;81.30
7666;DHT22;3875;46.562;4.898;2023-03-09T04:07:59;11.90;81.20
7666;DHT22;3875;46.562;4.898;2023-03-09T04:10:25;11.90;81.30
7666;DHT22;3875;46.562;4.898;2023-03-09T04:12:51;11.90;81.40
7666;DHT22;3875;46.562;4.898;2023-03-09T04:15:17;11.90;81.40
7666;DHT22;3875;46.562;4.898;2023-03-09T04:17:43;11.90;81.40
7666;DHT22;3875;46.562;4.898;2023-03-09T04:20:09;11.90;81.40
7666;DHT22;3875;46.562;4.898;2023-03-09T04:22:35;12.00;81.40
7666;DHT22;3875;46.562;4.898;2023-03-09T04:25:01;12.00;81.40
7666;DHT22;3875;46.562;4.898;2023-03-09T04:27:26;11.90;81.30
7666;DHT22;3875;46.562;4.898;2023-03-09T04:29:52;11.90;81.30
7666;DHT22;3875;46.562;4.898;2023-03-09T04:32:18;11.90;81.40
7666;DHT22;3875;46.562;4.898;2023-03-09T04:34:43;11.90;81.40
7666;DHT22;3875;46.562;4.898;2023-03-09T04:37:11;11.80;81.40
7666;DHT22;3875;46.562;4.898;2023-03-09T04:39:37;11.80;81.50
7666;DHT22;3875;46.562;4.898;2023-03-09T04:42:02;11.80;81.50
7666;DHT22;3875;46.562;4.898;2023-03-09T04:44:28;11.80;81.60
7666;DHT22;3875;46.562;4.898;2023-03-09T04:46:54;11.80;81.50
7666;DHT22;3875;46.562;4.898;2023-03-09T04:49:20;11.80;81.60
7666;DHT22;3875;46.562;4.898;2023-03-09T04:51:45;11.80;81.50
7666;DHT22;3875;46.562;4.898;2023-03-09T04:54:11;11.80;81.60
7666;DHT22;3875;46.562;4.898;2023-03-09T04:56:37;11.90;81.60
7666;DHT22;3875;46.562;4.898;2023-03-09T04:59:03;11.90;81.60
7666;DHT22;3875;46.562;4.898;2023-03-09T05:01:28;11.90;81.60
7666;DHT22;3875;46.562;4.898;2023-03-09T05:03:54;11.90;81.70
7666;DHT22;3875;46.562;4.898;2023-03-09T05:06:20;11.90;81.70
7666;DHT22;3875;46.562;4.898;2023-03-09T05:08:46;11.90;81.70
7666;DHT22;3875;46.562;4.898;2023-03-09T05:11:12;11.90;81.70
7666;DHT22;3875;46.562;4.898;2023-03-09T05:13:37;11.90;81.70
7666;DHT22;3875;46.562;4.898;2023-03-09T05:16:07;11.90;81.70
7666;DHT22;3875;46.562;4.898;2023-03-09T05:18:36;11.90;81.80
7666;DHT22;3875;46.562;4.898;2023-03-09T05:21:08;11.90;81.80
7666;DHT22;3875;46.562;4.898;2023-03-09T05:23:35;11.90;81.80
7666;DHT22;3875;46.562;4.898;2023-03-09T05:26:01;11.90;81.80
7666;DHT22;3875;46.562;4.898;2023-03-09T05:28:28;11.90;81.80
7666;DHT22;3875;46.562;4.898;2023-03-09T05:30:56;11.90;81.70
7666;DHT22;3875;46.562;4.898;2023-03-09T05:33:21;11.90;81.60
7666;DHT22;3875;46.562;4.898;2023-03-09T05:35:47;11.90;81.50
7666;DHT22;3875;46.562;4.898;2023-03-09T05:38:14;11.90;81.50
7666;DHT22;3875;46.562;4.898;2023-03-09T05:40:40;12.00;81.50
7666;DHT22;3875;46.562;4.898;2023-03-09T05:43:05;12.00;81.40
7666;DHT22;3875;46.562;4.898;2023-03-09T05:45:31;12.00;81.40
7666;DHT22;3875;46.562;4.898;2023-03-09T05:47:57;12.00;81.40
7666;DHT22;3875;46.562;4.898;2023-03-09T05:50:22;12.00;81.60
7666;DHT22;3875;46.562;4.898;2023-03-09T05:52:48;12.00;81.50
7666;DHT22;3875;46.562;4.898;2023-03-09T05:55:14;12.00;81.50
7666;DHT22;3875;46.562;4.898;2023-03-09T05:57:39;12.00;81.60
7666;DHT22;3875;46.562;4.898;2023-03-09T06:00:06;11.90;81.50
7666;DHT22;3875;46.562;4.898;2023-03-09T06:02:37;12.00;81.60
7666;DHT22;3875;46.562;4.898;2023-03-09T06:05:03;12.00;81.60
7666;DHT22;3875;46.562;4.898;2023-03-09T06:07:29;12.00;81.60
7666;DHT22;3875;46.562;4.898;2023-03-09T06:09:55;12.00;81.60
7666;DHT22;3875;46.562;4.898;2023-03-09T06:12:22;11.90;81.60
7666;DHT22;3875;46.562;4.898;2023-03-09T06:14:48;11.90;81.50
7666;DHT22;3875;46.562;4.898;2023-03-09T06:17:15;11.90;81.20
7666;DHT22;3875;46.562;4.898;2023-03-09T06:19:41;11.90;81.40
7666;DHT22;3875;46.562;4.898;2023-03-09T06:22:06;11.90;81.30
7666;DHT22;3875;46.562;4.898;2023-03-09T06:24:32;11.90;81.20
7666;DHT22;3875;46.562;4.898;2023-03-09T06:26:59;11.90;81.20
7666;DHT22;3875;46.562;4.898;2023-03-09T06:29:26;11.90;81.30
7666;DHT22;3875;46.562;4.898;2023-03-09T06:31:52;11.90;81.10
7666;DHT22;3875;46.562;4.898;2023-03-09T06:34:17;11.90;81.10
7666;DHT22;3875;46.562;4.898;2023-03-09T06:36:43;12.00;80.70
7666;DHT22;3875;46.562;4.898;2023-03-09T06:39:09;12.00;80.70
7666;DHT22;3875;46.562;4.898;2023-03-09T06:41:36;12.00;80.70
7666;DHT22;3875;46.562;4.898;2023-03-09T06:44:02;12.10;80.60
7666;DHT22;3875;46.562;4.898;2023-03-09T06:46:28;12.10;80.70
7666;DHT22;3875;46.562;4.898;2023-03-09T06:48:54;12.10;80.60
7666;DHT22;3875;46.562;4.898;2023-03-09T06:51:21;12.10;80.50
7666;DHT22;3875;46.562;4.898;2023-03-09T06:53:47;12.20;80.40
7666;DHT22;3875;46.562;4.898;2023-03-09T06:56:12;12.20;80.40
7666;DHT22;3875;46.562;4.898;2023-03-09T06:58:38;12.20;80.40
7666;DHT22;3875;46.562;4.898;2023-03-09T07:01:09;12.20;80.40
7666;DHT22;3875;46.562;4.898;2023-03-09T07:03:36;12.20;80.40
7666;DHT22;3875;46.562;4.898;2023-03-09T07:06:02;12.20;80.60
7666;DHT22;3875;46.562;4.898;2023-03-09T07:08:28;12.20;80.60
7666;DHT22;3875;46.562;4.898;2023-03-09T07:10:54;12.20;80.40
7666;DHT22;3875;46.562;4.898;2023-03-09T07:13:19;12.20;80.30
7666;DHT22;3875;46.562;4.898;2023-03-09T07:15:45;12.20;80.40
7666;DHT22;3875;46.562;4.898;2023-03-09T07:18:11;12.20;80.40
7666;DHT22;3875;46.562;4.898;2023-03-09T07:20:38;12.20;80.30
7666;DHT22;3875;46.562;4.898;2023-03-09T07:23:04;12.20;80.10
7666;DHT22;3875;46.562;4.898;2023-03-09T07:25:30;12.20;80.30
7666;DHT22;3875;46.562;4.898;2023-03-09T07:28:00;12.20;80.30
7666;DHT22;3875;46.562;4.898;2023-03-09T07:30:26;12.30;80.40
7666;DHT22;3875;46.562;4.898;2023-03-09T07:32:55;12.30;80.00
7666;DHT22;3875;46.562;4.898;2023-03-09T07:35:21;12.40;79.80
7666;DHT22;3875;46.562;4.898;2023-03-09T07:37:46;12.40;79.50
7666;DHT22;3875;46.562;4.898;2023-03-09T07:40:12;12.40;79.00
7666;DHT22;3875;46.562;4.898;2023-03-09T07:42:38;12.50;79.10
7666;DHT22;3875;46.562;4.898;2023-03-09T07:45:05;12.50;79.10
7666;DHT22;3875;46.562;4.898;2023-03-09T07:47:31;12.60;78.80
7666;DHT22;3875;46.562;4.898;2023-03-09T07:49:58;12.60;78.70
7666;DHT22;3875;46.562;4.898;2023-03-09T07:52:24;12.70;78.60
7666;DHT22;3875;46.562;4.898;2023-03-09T07:54:56;12.70;78.30
7666;DHT22;3875;46.562;4.898;2023-03-09T07:57:22;12.80;78.50
7666;DHT22;3875;46.562;4.898;2023-03-09T07:59:53;12.80;78.50
7666;DHT22;3875;46.562;4.898;2023-03-09T08:02:20;12.90;78.10
7666;DHT22;3875;46.562;4.898;2023-03-09T08:04:45;12.90;77.90
7666;DHT22;3875;46.562;4.898;2023-03-09T08:07:11;13.00;77.80
7666;DHT22;3875;46.562;4.898;2023-03-09T08:09:36;13.20;77.30
7666;DHT22;3875;46.562;4.898;2023-03-09T08:12:03;13.40;77.00
7666;DHT22;3875;46.562;4.898;2023-03-09T08:14:29;13.60;76.40
7666;DHT22;3875;46.562;4.898;2023-03-09T08:16:54;13.80;76.20
7666;DHT22;3875;46.562;4.898;2023-03-09T08:19:20;14.00;75.70
7666;DHT22;3875;46.562;4.898;2023-03-09T08:21:48;14.10;75.30
7666;DHT22;3875;46.562;4.898;2023-03-09T08:24:14;14.30;75.20
7666;DHT22;3875;46.562;4.898;2023-03-09T08:26:41;14.40;75.10
7666;DHT22;3875;46.562;4.898;2023-03-09T08:29:06;14.50;74.60
7666;DHT22;3875;46.562;4.898;2023-03-09T08:31:34;14.70;74.30
7666;DHT22;3875;46.562;4.898;2023-03-09T08:34:00;14.80;73.80
7666;DHT22;3875;46.562;4.898;2023-03-09T08:36:25;15.00;73.90
7666;DHT22;3875;46.562;4.898;2023-03-09T08:38:51;15.30;73.70
7666;DHT22;3875;46.562;4.898;2023-03-09T08:41:17;15.40;73.00
7666;DHT22;3875;46.562;4.898;2023-03-09T08:43:44;15.50;72.10
7666;DHT22;3875;46.562;4.898;2023-03-09T08:46:09;15.50;71.80
7666;DHT22;3875;46.562;4.898;2023-03-09T08:48:35;15.50;71.90
7666;DHT22;3875;46.562;4.898;2023-03-09T08:51:02;15.60;71.60
7666;DHT22;3875;46.562;4.898;2023-03-09T08:53:29;15.70;71.70
7666;DHT22;3875;46.562;4.898;2023-03-09T08:55:56;15.80;71.60
7666;DHT22;3875;46.562;4.898;2023-03-09T08:58:21;15.90;71.40
7666;DHT22;3875;46.562;4.898;2023-03-09T09:00:47;16.10;70.70
7666;DHT22;3875;46.562;4.898;2023-03-09T09:03:13;16.10;70.20
7666;DHT22;3875;46.562;4.898;2023-03-09T09:05:39;16.20;69.40
7666;DHT22;3875;46.562;4.898;2023-03-09T09:08:05;16.30;69.20
7666;DHT22;3875;46.562;4.898;2023-03-09T09:10:30;16.30;69.10
7666;DHT22;3875;46.562;4.898;2023-03-09T09:12:56;16.50;68.50
7666;DHT22;3875;46.562;4.898;2023-03-09T09:15:22;16.70;68.40
7666;DHT22;3875;46.562;4.898;2023-03-09T09:17:48;16.90;67.70
7666;DHT22;3875;46.562;4.898;2023-03-09T09:20:14;17.00;67.90
7666;DHT22;3875;46.562;4.898;2023-03-09T09:22:41;17.10;67.80
7666;DHT22;3875;46.562;4.898;2023-03-09T09:25:07;17.20;67.00
7666;DHT22;3875;46.562;4.898;2023-03-09T09:27:36;17.30;67.10
7666;DHT22;3875;46.562;4.898;2023-03-09T09:30:03;17.40;66.60
7666;DHT22;3875;46.562;4.898;2023-03-09T09:32:29;17.30;67.00
7666;DHT22;3875;46.562;4.898;2023-03-09T09:34:56;17.40;66.90
7666;DHT22;3875;46.562;4.898;2023-03-09T09:37:22;17.50;66.80
7666;DHT22;3875;46.562;4.898;2023-03-09T09:39:48;17.60;66.20
7666;DHT22;3875;46.562;4.898;2023-03-09T09:42:30;17.80;66.60
7666;DHT22;3875;46.562;4.898;2023-03-09T09:44:56;17.90;65.60
7666;DHT22;3875;46.562;4.898;2023-03-09T09:47:28;17.80;65.30
7666;DHT22;3875;46.562;4.898;2023-03-09T09:49:58;17.80;65.30
7666;DHT22;3875;46.562;4.898;2023-03-09T09:55:25;18.10;64.90
7666;DHT22;3875;46.562;4.898;2023-03-09T10:00:36;18.30;64.30
7666;DHT22;3875;46.562;4.898;2023-03-09T10:03:09;18.40;64.20
7666;DHT22;3875;46.562;4.898;2023-03-09T10:05:48;18.40;63.80
7666;DHT22;3875;46.562;4.898;2023-03-09T10:08:33;18.70;65.10
7666;DHT22;3875;46.562;4.898;2023-03-09T10:14:42;18.80;64.30
7666;DHT22;3875;46.562;4.898;2023-03-09T10:16:51;18.80;63.70
7666;DHT22;3875;46.562;4.898;2023-03-09T10:19:31;19.20;63.20
7666;DHT22;3875;46.562;4.898;2023-03-09T10:22:05;19.40;63.10
7666;DHT22;3875;46.562;4.898;2023-03-09T10:24:38;19.40;62.40
7666;DHT22;3875;46.562;4.898;2023-03-09T10:29:55;19.60;61.80
7666;DHT22;3875;46.562;4.898;2023-03-09T10:32:46;19.70;61.80
7666;DHT22;3875;46.562;4.898;2023-03-09T10:37:46;19.90;58.30
7666;DHT22;3875;46.562;4.898;2023-03-09T10:40:21;19.90;58.10
7666;DHT22;3875;46.562;4.898;2023-03-09T10:42:47;20.10;59.00
7666;DHT22;3875;46.562;4.898;2023-03-09T10:50:29;20.40;59.10
7666;DHT22;3875;46.562;4.898;2023-03-09T10:52:55;20.50;57.80
7666;DHT22;3875;46.562;4.898;2023-03-09T10:55:41;20.60;56.90
7666;DHT22;3875;46.562;4.898;2023-03-09T10:58:18;20.90;57.20
7666;DHT22;3875;46.562;4.898;2023-03-09T11:03:24;21.20;56.50
7666;DHT22;3875;46.562;4.898;2023-03-09T11:05:51;21.30;56.10
7666;DHT22;3875;46.562;4.898;2023-03-09T11:08:25;21.30;56.10
7666;DHT22;3875;46.562;4.898;2023-03-09T11:11:07;21.30;56.00
7666;DHT22;3875;46.562;4.898;2023-03-09T11:13:42;21.00;55.90
7666;DHT22;3875;46.562;4.898;2023-03-09T11:16:22;21.00;56.80
7666;DHT22;3875;46.562;4.898;2023-03-09T11:18:48;21.10;55.00
7666;DHT22;3875;46.562;4.898;2023-03-09T11:21:24;21.20;55.50
7666;DHT22;3875;46.562;4.898;2023-03-09T11:23:53;21.20;55.00
7666;DHT22;3875;46.562;4.898;2023-03-09T11:26:46;21.20;54.80
7666;DHT22;3875;46.562;4.898;2023-03-09T11:31:40;21.40;55.60
7666;DHT22;3875;46.562;4.898;2023-03-09T11:34:30;21.40;54.40
7666;DHT22;3875;46.562;4.898;2023-03-09T11:37:01;21.40;53.00
7666;DHT22;3875;46.562;4.898;2023-03-09T11:40:25;21.20;52.70
7666;DHT22;3875;46.562;4.898;2023-03-09T11:42:39;21.20;53.00
7666;DHT22;3875;46.562;4.898;2023-03-09T11:45:30;21.40;54.10
7666;DHT22;3875;46.562;4.898;2023-03-09T11:49:04;21.50;54.70
7666;DHT22;3875;46.562;4.898;2023-03-09T11:51:16;21.70;53.60
7666;DHT22;3875;46.562;4.898;2023-03-09T11:56:28;22.00;54.00
7666;DHT22;3875;46.562;4.898;2023-03-09T11:59:11;22.20;53.10
7666;DHT22;3875;46.562;4.898;2023-03-09T12:01:43;22.20;52.10
7666;DHT22;3875;46.562;4.898;2023-03-09T12:04:14;22.10;51.80
7666;DHT22;3875;46.562;4.898;2023-03-09T12:12:31;22.50;51.20
7666;DHT22;3875;46.562;4.898;2023-03-09T12:15:11;22.40;50.20
7666;DHT22;3875;46.562;4.898;2023-03-09T12:17:48;22.20;50.30
7666;DHT22;3875;46.562;4.898;2023-03-09T12:20:31;22.30;49.70
7666;DHT22;3875;46.562;4.898;2023-03-09T12:22:58;22.10;49.60
7666;DHT22;3875;46.562;4.898;2023-03-09T12:25:25;21.90;50.00
7666;DHT22;3875;46.562;4.898;2023-03-09T12:27:54;21.80;51.60
7666;DHT22;3875;46.562;4.898;2023-03-09T12:30:29;21.80;51.80
7666;DHT22;3875;46.562;4.898;2023-03-09T12:32:57;22.00;51.60
7666;DHT22;3875;46.562;4.898;2023-03-09T12:38:23;22.10;51.50
7666;DHT22;3875;46.562;4.898;2023-03-09T12:40:51;21.80;51.20
7666;DHT22;3875;46.562;4.898;2023-03-09T12:45:51;21.60;52.10
7666;DHT22;3875;46.562;4.898;2023-03-09T12:48:28;21.70;52.40
7666;DHT22;3875;46.562;4.898;2023-03-09T12:51:17;21.50;51.30
7666;DHT22;3875;46.562;4.898;2023-03-09T12:56:42;20.60;51.30
7666;DHT22;3875;46.562;4.898;2023-03-09T12:59:09;20.30;52.10
7666;DHT22;3875;46.562;4.898;2023-03-09T13:01:35;20.20;51.40
7666;DHT22;3875;46.562;4.898;2023-03-09T13:16:54;21.10;52.30
7666;DHT22;3875;46.562;4.898;2023-03-09T13:29:59;20.60;52.70
7666;DHT22;3875;46.562;4.898;2023-03-09T13:32:41;20.50;52.90
7666;DHT22;3875;46.562;4.898;2023-03-09T13:35:41;20.40;53.50
7666;DHT22;3875;46.562;4.898;2023-03-09T13:38:19;20.40;52.90
7666;DHT22;3875;46.562;4.898;2023-03-09T13:40:55;20.40;54.00
7666;DHT22;3875;46.562;4.898;2023-03-09T13:43:29;20.70;54.40
7666;DHT22;3875;46.562;4.898;2023-03-09T13:46:05;20.80;53.10
7666;DHT22;3875;46.562;4.898;2023-03-09T13:48:39;20.90;53.10
7666;DHT22;3875;46.562;4.898;2023-03-09T13:51:54;20.80;52.80
7666;DHT22;3875;46.562;4.898;2023-03-09T13:54:47;20.70;53.40
7666;DHT22;3875;46.562;4.898;2023-03-09T13:57:14;20.50;53.90
7666;DHT22;3875;46.562;4.898;2023-03-09T14:02:17;20.40;54.80
7666;DHT22;3875;46.562;4.898;2023-03-09T14:05:01;20.30;55.60
7666;DHT22;3875;46.562;4.898;2023-03-09T14:07:32;20.10;54.90
7666;DHT22;3875;46.562;4.898;2023-03-09T14:10:03;19.80;55.10
7666;DHT22;3875;46.562;4.898;2023-03-09T14:12:36;19.60;55.80
7666;DHT22;3875;46.562;4.898;2023-03-09T14:15:05;19.30;55.90
7666;DHT22;3875;46.562;4.898;2023-03-09T14:17:33;19.10;56.40
7666;DHT22;3875;46.562;4.898;2023-03-09T14:20:01;18.90;56.40
7666;DHT22;3875;46.562;4.898;2023-03-09T14:22:29;18.70;56.80
7666;DHT22;3875;46.562;4.898;2023-03-09T14:24:57;18.60;57.30
7666;DHT22;3875;46.562;4.898;2023-03-09T14:27:35;18.50;57.60
7666;DHT22;3875;46.562;4.898;2023-03-09T14:33:01;18.20;59.50
7666;DHT22;3875;46.562;4.898;2023-03-09T14:35:37;18.00;61.00
7666;DHT22;3875;46.562;4.898;2023-03-09T14:38:21;17.80;61.90
7666;DHT22;3875;46.562;4.898;2023-03-09T14:40:48;17.70;62.30
7666;DHT22;3875;46.562;4.898;2023-03-09T14:43:39;17.50;61.90
7666;DHT22;3875;46.562;4.898;2023-03-09T14:48:48;17.50;63.00
7666;DHT22;3875;46.562;4.898;2023-03-09T14:51:34;17.40;63.60
7666;DHT22;3875;46.562;4.898;2023-03-09T14:54:07;17.00;67.00
7666;DHT22;3875;46.562;4.898;2023-03-09T14:56:35;16.60;69.00
7666;DHT22;3875;46.562;4.898;2023-03-09T14:59:16;16.30;70.40
7666;DHT22;3875;46.562;4.898;2023-03-09T15:01:48;16.10;71.70
7666;DHT22;3875;46.562;4.898;2023-03-09T15:04:18;15.80;73.40
7666;DHT22;3875;46.562;4.898;2023-03-09T15:06:45;15.60;73.90
7666;DHT22;3875;46.562;4.898;2023-03-09T15:09:12;15.50;74.40
7666;DHT22;3875;46.562;4.898;2023-03-09T15:11:41;15.50;75.50
7666;DHT22;3875;46.562;4.898;2023-03-09T15:16:47;15.30;77.00
7666;DHT22;3875;46.562;4.898;2023-03-09T15:19:18;15.20;78.10
7666;DHT22;3875;46.562;4.898;2023-03-09T15:21:44;15.10;78.60
7666;DHT22;3875;46.562;4.898;2023-03-09T15:24:10;15.10;79.00
7666;DHT22;3875;46.562;4.898;2023-03-09T15:26:36;15.10;79.00
7666;DHT22;3875;46.562;4.898;2023-03-09T15:29:02;15.20;78.70
7666;DHT22;3875;46.562;4.898;2023-03-09T15:31:28;15.30;79.30
7666;DHT22;3875;46.562;4.898;2023-03-09T15:33:56;15.20;80.70
7666;DHT22;3875;46.562;4.898;2023-03-09T15:36:22;15.20;80.70
7666;DHT22;3875;46.562;4.898;2023-03-09T15:38:47;15.10;82.00
7666;DHT22;3875;46.562;4.898;2023-03-09T15:41:14;15.30;81.30
7666;DHT22;3875;46.562;4.898;2023-03-09T15:43:41;15.50;81.20
7666;DHT22;3875;46.562;4.898;2023-03-09T15:46:08;15.50;81.80
7666;DHT22;3875;46.562;4.898;2023-03-09T15:48:34;15.40;82.20
7666;DHT22;3875;46.562;4.898;2023-03-09T15:51:01;15.50;82.00
7666;DHT22;3875;46.562;4.898;2023-03-09T15:53:27;15.50;81.70
7666;DHT22;3875;46.562;4.898;2023-03-09T15:56:07;15.70;80.80
7666;DHT22;3875;46.562;4.898;2023-03-09T15:58:34;15.90;80.50
7666;DHT22;3875;46.562;4.898;2023-03-09T16:01:11;16.10;80.10
7666;DHT22;3875;46.562;4.898;2023-03-09T16:03:38;16.30;79.80
7666;DHT22;3875;46.562;4.898;2023-03-09T16:06:05;16.50;79.40
7666;DHT22;3875;46.562;4.898;2023-03-09T16:08:31;16.60;79.10
7666;DHT22;3875;46.562;4.898;2023-03-09T16:10:57;16.60;79.00
7666;DHT22;3875;46.562;4.898;2023-03-09T16:13:24;16.60;79.00
7666;DHT22;3875;46.562;4.898;2023-03-09T16:15:50;16.50;79.00
7666;DHT22;3875;46.562;4.898;2023-03-09T16:18:18;16.40;79.30
7666;DHT22;3875;46.562;4.898;2023-03-09T16:20:44;16.40;79.20
7666;DHT22;3875;46.562;4.898;2023-03-09T16:23:10;16.30;79.40
7666;DHT22;3875;46.562;4.898;2023-03-09T16:25:37;16.20;79.50
7666;DHT22;3875;46.562;4.898;2023-03-09T16:28:03;16.20;79.60
7666;DHT22;3875;46.562;4.898;2023-03-09T16:30:29;16.20;79.60
7666;DHT22;3875;46.562;4.898;2023-03-09T16:32:55;16.10;79.70
7666;DHT22;3875;46.562;4.898;2023-03-09T16:35:22;16.10;79.80
7666;DHT22;3875;46.562;4.898;2023-03-09T16:37:49;16.00;79.80
7666;DHT22;3875;46.562;4.898;2023-03-09T16:40:15;16.00;79.90
7666;DHT22;3875;46.562;4.898;2023-03-09T16:42:42;15.90;80.00
7666;DHT22;3875;46.562;4.898;2023-03-09T16:45:08;15.90;80.30
7666;DHT22;3875;46.562;4.898;2023-03-09T16:47:36;15.80;80.40
7666;DHT22;3875;46.562;4.898;2023-03-09T16:50:04;15.70;80.60
7666;DHT22;3875;46.562;4.898;2023-03-09T16:52:31;15.60;80.60
7666;DHT22;3875;46.562;4.898;2023-03-09T16:55:02;15.50;80.90
7666;DHT22;3875;46.562;4.898;2023-03-09T16:57:29;15.50;81.20
7666;DHT22;3875;46.562;4.898;2023-03-09T16:59:57;15.40;81.20
7666;DHT22;3875;46.562;4.898;2023-03-09T17:02:24;15.30;81.40
7666;DHT22;3875;46.562;4.898;2023-03-09T17:04:50;15.20;81.70
7666;DHT22;3875;46.562;4.898;2023-03-09T17:07:17;15.20;81.80
7666;DHT22;3875;46.562;4.898;2023-03-09T17:09:42;15.10;82.00
7666;DHT22;3875;46.562;4.898;2023-03-09T17:12:09;15.00;82.10
7666;DHT22;3875;46.562;4.898;2023-03-09T17:14:35;14.90;82.20
7666;DHT22;3875;46.562;4.898;2023-03-09T17:17:01;14.90;82.50
7666;DHT22;3875;46.562;4.898;2023-03-09T17:19:28;14.80;82.60
7666;DHT22;3875;46.562;4.898;2023-03-09T17:21:54;14.70;82.60
7666;DHT22;3875;46.562;4.898;2023-03-09T17:24:26;14.70;82.70
7666;DHT22;3875;46.562;4.898;2023-03-09T17:26:52;14.60;82.70
7666;DHT22;3875;46.562;4.898;2023-03-09T17:29:17;14.50;83.00
7666;DHT22;3875;46.562;4.898;2023-03-09T17:31:43;14.50;83.40
7666;DHT22;3875;46.562;4.898;2023-03-09T17:34:08;14.40;83.30
7666;DHT22;3875;46.562;4.898;2023-03-09T17:36:34;14.40;83.20
7666;DHT22;3875;46.562;4.898;2023-03-09T17:39:00;14.30;83.20